Silver Peak Trail, Santa Catalina Island Weather observations

Data are for 10 minute period ending at time listed.
 Day   Time   Solar   Ave.   Ave.  Ave.  Vector    Max.   Stn.    Total
  of    of     Rad.   Air    Rel.  Wind   Wind     Wind   Baro.  Precip.
Year   Day            Temp.  Hum.  Speed  Dir.     Gust   Pres.         
2014   (PST)   W/m2    F      %     mph   deg.      mph    mb.     in.  
------------------------------------------------------------------------
 240    8:10  509.0    80   28.9     9    346.3    14.3    999.0   0.00  
 240    8:20  542.0    80   28.2     9    341.2    13.7    999.0   0.00  
 240    8:30  574.0    81   26.8     8    337.2    14.9    999.0   0.00  
 240    8:40  605.0    82   28.5     6    328.6    10.8    999.0   0.00  
 240    8:50  636.0    84   29.9     5    315.0    11.9    999.0   0.00  
 240    9:00  665.0    83   30.1     5    335.4    10.8    999.0   0.00  
 240    9:10  693.0    84   30.6     6    333.4    10.2    999.0   0.00  
 240    9:20  720.0    85   31.1     4    350.2     8.4    999.0   0.00  
 240    9:30  747.0    85   32.9     5    335.0    11.3    999.0   0.00  
 240    9:40  771.0    85   33.5     6    335.2    12.5    999.0   0.00  
 240    9:50  794.0    86   31.4     5    356.3     9.0    999.0   0.00  
 240   10:00  816.0    87   30.6     5    354.5    12.5    999.0   0.00  
 240   10:10  836.0    87   29.5     6     13.3    10.8    999.0   0.00  
 240   10:20  855.0    88   29.3     4     15.0     8.4    999.0   0.00  
 240   10:30  872.0    89   32.1     4    219.6     7.2    999.0   0.00  
 240   10:40  888.0    88   31.9     4    336.4     9.6    999.0   0.00  
 240   10:50  903.0    88   32.9     4    334.1     8.4    999.0   0.00  
 240   11:00  915.0    88   32.4     4    297.1     8.4    999.0   0.00  
 240   11:10  926.0    89   31.9     4    334.1     9.0    999.0   0.00  
 240   11:20  934.0    87   37.0     5    256.4    11.9    999.0   0.00  
 240   11:30  940.0    85   36.5     8    274.4    15.5    999.0   0.00  
 240   11:40  945.0    86   35.3     8    273.1    17.3    999.0   0.00  
 240   11:50  948.0    86   34.7     9    256.4    17.3    999.0   0.00  
 240   12:00  950.0    85   33.1     7    283.6    14.3    999.0   0.00  
 240   12:10  951.0    87   30.1     6    291.6    10.8    999.0   0.00  
 240   12:20  949.0    86   31.7     7    260.5    13.7    999.0   0.00  
 240   12:30  944.0    86   31.4    11    244.2    20.9    999.0   0.00  
 240   12:40  938.0    86   30.6    11    240.1    20.3    999.0   0.00  
 240   12:50  929.0    86   27.4    12    235.3    20.3    999.0   0.00  
 240   13:00  919.0    85   28.8    12    235.1    22.1    999.0   0.00  
 240   13:10  907.0    87   26.6    12    227.9    17.3    999.0   0.00  
 240   13:20  892.0    86   26.7    14    230.7    20.9    999.0   0.00  
 240   13:30  876.0    86   27.3    14    231.9    22.1    999.0   0.00  
 240   13:40  858.0    86   28.0    15    226.7    23.3    999.0   0.00  
 240   13:50  840.0    86   24.1    13    223.1    23.3    999.0   0.00  
 240   14:00  820.0    86   24.2    14    222.7    19.7    999.0   0.00  
 240   14:10  798.0    86   26.8    16    226.8    25.0    999.0   0.00  
 240   14:20  775.0    86   24.8    16    226.3    25.6    999.0   0.00  
 240   14:30  751.0    85   24.7    17    228.8    25.6    999.0   0.00  
 240   14:40  726.0    85   24.1    16    235.1    26.2    999.0   0.00  
 240   14:50  700.0    84   24.4    17    234.6    25.6    999.0   0.00  
 240   15:00  672.0    84   27.7    17    238.6    30.4    999.0   0.00  
 240   15:10  644.0    84   25.9    17    231.7    26.8    999.0   0.00  
 240   15:20  615.0    84   26.6    17    236.0    30.4    999.0   0.00  
 240   15:30  585.0    84   24.8    17    237.1    24.5    999.0   0.00  
 240   15:40  553.0    83   24.9    19    237.4    28.0    999.0   0.00  
 240   15:50  521.0    83   24.8    17    242.1    26.2    999.0   0.00  
 240   16:00  488.0    82   25.0    20    242.9    29.8    999.0   0.00  
 240   16:10  455.0    83   26.0    20    243.4    34.0    999.0   0.00  
 240   16:20  421.0    82   22.2    21    241.0    35.2    999.0   0.00  
 240   16:30  386.0    82   19.1    21    238.9    32.2    999.0   0.00  
 240   16:40  351.0    82   17.6    21    240.9    35.2    999.0   0.00  
 240   16:50  317.0    83   20.1    20    245.2    33.4    999.0   0.00  
 240   17:00  282.0    83   22.3    18    243.9    34.6    999.0   0.00  
 240   17:10  247.0    83   23.2    19    242.8    29.2    999.0   0.00  
 240   17:20  213.0    83   22.0    17    238.3    27.4    999.0   0.00  
 240   17:30  179.0    83   24.7    19    241.5    33.4    999.0   0.00  
 240   17:40  147.0    83   25.4    19    244.4    26.8    999.0   0.00  
 240   17:50  116.0    82   23.4    18    240.6    31.0    999.0   0.00  
 240   18:00   87.0    82   20.2    19    240.8    33.4    999.0   0.00  
 240   18:10   61.0    81   18.4    19    241.3    30.4    999.0   0.00  
 240   18:20   37.0    81   19.3    18    239.0    28.6    999.0   0.00  
 240   18:30   14.0    81   18.4    20    237.9    34.0    999.0   0.00  
 240   18:40    2.0    80   17.4    19    241.7    29.8    999.0   0.00  
 240   18:50    0.0    81   17.6    20    243.2    32.2    999.0   0.00  
 240   19:00    0.0    80   18.9    19    247.2    30.4    999.0   0.00  
 240   19:10    0.0    81   17.6    19    238.6    31.6    999.0   0.00  
 240   19:20    0.0    80   13.3    19    239.8    29.8    999.0   0.00  
 240   19:30    0.0    80   15.0    20    243.0    32.8    999.0   0.00  
 240   19:40    0.0    80   16.0    21    244.0    34.6    999.0   0.00  
 240   19:50    0.0    79   15.1    20    242.9    29.2    999.0   0.00  
 240   20:00    0.0    79   14.7    20    244.5    31.6    999.0   0.00  
 240   20:10    0.0    80   13.5    20    249.3    31.6    999.0   0.00  
 240   20:20    0.0    80   13.8    19    253.0    29.8    999.0   0.00  
 240   20:30    0.0    80   14.1    19    253.1    29.8    999.0   0.00  
 240   20:40    0.0    80   13.3    20    257.8    31.0    999.0   0.00  
 240   20:50    0.0    80   12.3    19    264.3    31.0    999.0   0.00  
 240   21:00    0.0    80   11.5    19    266.6    28.6    999.0   0.00  
 240   21:10    0.0    80   10.7    19    267.4    26.8    999.0   0.00  
 240   21:20    0.0    80   10.2    18    263.2    26.2    999.0   0.00  
 240   21:30    0.0    80    9.2    17    261.4    23.3    999.0   0.00  
 240   21:40    0.0    80    9.1    16    261.9    24.5    999.0   0.00  
 240   21:50    0.0    80    9.3    16    263.5    25.6    999.0   0.00  
 240   22:00    0.0    81    9.2    15    269.4    22.1    999.0   0.00  
 240   22:10    0.0    81   11.8    14    274.0    21.5    999.0   0.00  
 240   22:20    0.0    83   13.7    15    278.2    22.1    999.0   0.00  
 240   22:30    0.0    83   13.8    13    280.6    20.9    999.0   0.00  
 240   22:40    0.0    82   13.1    12    282.7    18.5    999.0   0.00  
 240   22:50    0.0    80   14.0    14    278.6    19.7    999.0   0.00  
 240   23:00    0.0    79   12.9    11    266.2    17.9    999.0   0.00  
 240   23:10    0.0    78   13.8    11    265.8    16.1    999.0   0.00  
 240   23:20    0.0    79   13.5    13    282.3    19.7    999.0   0.00  
 240   23:30    0.0    80   12.7    11    281.2    16.1    999.0   0.00  
 240   23:40    0.0    80   13.2    10    280.8    14.9    999.0   0.00  
 240   23:50    0.0    79   14.7    12    285.3    17.3    999.0   0.00  
 241    0:00    0.0    78   16.5    12    298.2    17.3    999.0   0.00  
 241    0:10    0.0    76   18.1    12    307.7    15.5    999.0   0.00  
 241    0:20    0.0    76   17.8    12    315.1    14.9    999.0   0.00  
 241    0:30    0.0    76   18.3    12    318.6    13.7    999.0   0.00  
 241    0:40    0.0    77   18.1    12    325.5    15.5    999.0   0.00  
 241    0:50    0.0    76   18.8    13    320.8    15.5    999.0   0.00  
 241    1:00    0.0    77   17.9    12    313.7    16.7    999.0   0.00  
 241    1:10    0.0    77   15.9    12    311.1    15.5    999.0   0.00  
 241    1:20    0.0    77   13.4    14    310.9    16.7    999.0   0.00  
 241    1:30    0.0    77   12.9    14    311.6    16.7    999.0   0.00  
 241    1:40    0.0    78   11.2    14    311.8    17.9    999.0   0.00  
 241    1:50    0.0    77   11.5    14    319.5    16.7    999.0   0.00  
 241    2:00    0.0    76   14.5    14    325.5    17.3    999.0   0.00  
 241    2:10    0.0    76   15.7    15    322.5    17.3    999.0   0.00  
 241    2:20    0.0    76   16.5    13    325.2    15.5    999.0   0.00  
 241    2:30    0.0    77   14.0    13    319.1    15.5    999.0   0.00  
 241    2:40    0.0    78   11.0    11    311.9    14.3    999.0   0.00  
 241    2:50    0.0    78    9.8    10    314.6    11.9    999.0   0.00  
 241    3:00    0.0    79    8.9    10    313.7    11.3    999.0   0.00  
 241    3:10    0.0    79   10.9     7    297.4     9.6    999.0   0.00  
 241    3:20    0.0    78   13.8     6    278.8     8.4    999.0   0.00  
 241    3:30    0.0    77   14.4     6    294.8     9.6    999.0   0.00  
 241    3:40    0.0    76   17.0     5    263.0     7.2    999.0   0.00  
 241    3:50    0.0    79   13.2     6    288.2     9.0    999.0   0.00  
 241    4:00    0.0    75   19.4     6    223.8     9.0    999.0   0.00  
 241    4:10    0.0    74   18.6     5    262.8     7.8    999.0   0.00  
 241    4:20    0.0    76   15.4     6    235.7     7.2    999.0   0.00  
 241    4:30    0.0    76   18.7     7    231.7     9.0    999.0   0.00  
 241    4:40    0.0    75   21.4     7    235.4     7.8    999.0   0.00  
 241    4:50    0.0    75   20.6     7    249.7     8.4    999.0   0.00  
 241    5:00    0.0    75   18.6     7    238.3     8.4    999.0   0.00  
 241    5:10    0.0    74   20.9     7    212.9     8.4    999.0   0.00  
 241    5:20    1.0    73   23.3     8    203.3     9.0    999.0   0.00  
 241    5:30    3.0    73   21.8     8    209.2     9.6    999.0   0.00  
 241    5:40   23.0    74   19.1     9    213.7    10.8    999.0   0.00  
 241    5:50   49.0    75   18.9     9    212.2    10.8    999.0   0.00  
 241    6:00   76.0    75   18.0     9    217.0    11.3    999.0   0.00  
 241    6:10  106.0    75   19.3     8    210.1    10.8    999.0   0.00  
 241    6:20  137.0    74   20.4     9    214.7    13.1    999.0   0.00  
 241    6:30  170.0    75   19.8     8    215.0    10.2    999.0   0.00  
 241    6:40  204.0    75   20.3     8    213.2    10.8    999.0   0.00  
 241    6:50  239.0    74   22.1     7    216.5    10.2    999.0   0.00  
 241    7:00  274.0    74   20.6     7    213.3     9.0    999.0   0.00  
 241    7:10  310.0    75   18.0     5    218.2     8.4    999.0   0.00  
 241    7:20  346.0    75   22.2     4    215.9     6.0    999.0   0.00  
 241    7:30  382.0    76   21.0     4    196.4     5.4    999.0   0.00  
 241    7:40  417.0    77   20.4     4    188.4     5.4    999.0   0.00  
 241    7:50  452.0    78   21.5     4    195.3     6.0    999.0   0.00  
 241    8:00  486.0    76   22.0     6    200.7     7.2    999.0   0.00  

Return to Silver Peak Trail graphs page.


Western Regional Climate Center,wrcc@dri.edu